sensor_id;sensor_type;location;lat;lon;timestamp;P1;durP1;ratioP1;P2;durP2;ratioP2
53285;SDS011;39171;45.550;12.074;2022-12-07T00:02:16;10.88;;;9.40;;
53285;SDS011;39171;45.550;12.074;2022-12-07T00:08:18;9.45;;;8.45;;
53285;SDS011;39171;45.550;12.074;2022-12-07T00:14:20;10.15;;;9.05;;
53285;SDS011;39171;45.550;12.074;2022-12-07T00:20:21;9.00;;;8.10;;
53285;SDS011;39171;45.550;12.074;2022-12-07T00:26:27;9.10;;;8.20;;
53285;SDS011;39171;45.550;12.074;2022-12-07T00:32:37;9.27;;;8.38;;
53285;SDS011;39171;45.550;12.074;2022-12-07T00:38:44;9.20;;;8.30;;
53285;SDS011;39171;45.550;12.074;2022-12-07T00:44:45;10.20;;;8.75;;
53285;SDS011;39171;45.550;12.074;2022-12-07T00:50:47;9.55;;;8.07;;
53285;SDS011;39171;45.550;12.074;2022-12-07T00:56:49;10.07;;;9.00;;
53285;SDS011;39171;45.550;12.074;2022-12-07T01:02:50;9.93;;;8.95;;
53285;SDS011;39171;45.550;12.074;2022-12-07T01:08:53;9.25;;;8.35;;
53285;SDS011;39171;45.550;12.074;2022-12-07T01:14:55;9.65;;;8.70;;
53285;SDS011;39171;45.550;12.074;2022-12-07T01:20:57;9.43;;;8.52;;
53285;SDS011;39171;45.550;12.074;2022-12-07T01:27:01;9.63;;;8.63;;
53285;SDS011;39171;45.550;12.074;2022-12-07T01:33:03;9.40;;;8.50;;
53285;SDS011;39171;45.550;12.074;2022-12-07T01:39:05;9.48;;;8.25;;
53285;SDS011;39171;45.550;12.074;2022-12-07T01:51:18;10.32;;;8.60;;
53285;SDS011;39171;45.550;12.074;2022-12-07T01:57:20;8.50;;;7.63;;
53285;SDS011;39171;45.550;12.074;2022-12-07T02:03:24;9.73;;;8.73;;
53285;SDS011;39171;45.550;12.074;2022-12-07T02:09:38;9.80;;;8.90;;
53285;SDS011;39171;45.550;12.074;2022-12-07T02:16:23;9.95;;;8.85;;
53285;SDS011;39171;45.550;12.074;2022-12-07T02:35:25;9.68;;;8.32;;
53285;SDS011;39171;45.550;12.074;2022-12-07T02:41:48;9.75;;;8.70;;
53285;SDS011;39171;45.550;12.074;2022-12-07T02:47:56;9.75;;;8.75;;
53285;SDS011;39171;45.550;12.074;2022-12-07T02:54:00;9.35;;;8.45;;
53285;SDS011;39171;45.550;12.074;2022-12-07T03:00:07;10.13;;;8.40;;
53285;SDS011;39171;45.550;12.074;2022-12-07T03:06:20;8.38;;;7.57;;
53285;SDS011;39171;45.550;12.074;2022-12-07T03:12:31;9.27;;;7.82;;
53285;SDS011;39171;45.550;12.074;2022-12-07T03:19:02;7.85;;;7.03;;
53285;SDS011;39171;45.550;12.074;2022-12-07T03:25:18;7.20;;;6.50;;
53285;SDS011;39171;45.550;12.074;2022-12-07T03:31:24;7.45;;;6.75;;
53285;SDS011;39171;45.550;12.074;2022-12-07T03:37:33;7.57;;;6.78;;
53285;SDS011;39171;45.550;12.074;2022-12-07T03:43:38;7.05;;;6.35;;
53285;SDS011;39171;45.550;12.074;2022-12-07T03:49:46;8.50;;;7.15;;
53285;SDS011;39171;45.550;12.074;2022-12-07T03:55:52;7.25;;;6.55;;
53285;SDS011;39171;45.550;12.074;2022-12-07T04:01:56;7.43;;;6.50;;
53285;SDS011;39171;45.550;12.074;2022-12-07T04:08:02;7.20;;;6.25;;
53285;SDS011;39171;45.550;12.074;2022-12-07T04:14:03;7.68;;;6.72;;
53285;SDS011;39171;45.550;12.074;2022-12-07T04:20:20;7.35;;;6.55;;
53285;SDS011;39171;45.550;12.074;2022-12-07T04:26:22;7.60;;;6.72;;
53285;SDS011;39171;45.550;12.074;2022-12-07T04:32:24;8.25;;;6.88;;
53285;SDS011;39171;45.550;12.074;2022-12-07T04:38:25;7.88;;;7.07;;
53285;SDS011;39171;45.550;12.074;2022-12-07T04:44:27;7.35;;;6.65;;
53285;SDS011;39171;45.550;12.074;2022-12-07T04:50:29;7.63;;;6.82;;
53285;SDS011;39171;45.550;12.074;2022-12-07T04:56:31;6.90;;;5.97;;
53285;SDS011;39171;45.550;12.074;2022-12-07T05:02:33;8.13;;;7.05;;
53285;SDS011;39171;45.550;12.074;2022-12-07T05:08:35;9.55;;;7.22;;
53285;SDS011;39171;45.550;12.074;2022-12-07T05:14:37;8.93;;;7.70;;
53285;SDS011;39171;45.550;12.074;2022-12-07T05:20:38;9.18;;;7.10;;
53285;SDS011;39171;45.550;12.074;2022-12-07T05:26:41;7.38;;;6.50;;
53285;SDS011;39171;45.550;12.074;2022-12-07T05:32:42;7.45;;;6.65;;
53285;SDS011;39171;45.550;12.074;2022-12-07T05:38:44;7.35;;;6.55;;
53285;SDS011;39171;45.550;12.074;2022-12-07T05:44:46;8.35;;;7.10;;
53285;SDS011;39171;45.550;12.074;2022-12-07T05:50:48;8.48;;;7.53;;
53285;SDS011;39171;45.550;12.074;2022-12-07T05:56:50;10.02;;;8.88;;
53285;SDS011;39171;45.550;12.074;2022-12-07T06:02:52;9.35;;;7.90;;
53285;SDS011;39171;45.550;12.074;2022-12-07T06:08:55;9.65;;;7.85;;
53285;SDS011;39171;45.550;12.074;2022-12-07T06:14:56;9.55;;;8.32;;
53285;SDS011;39171;45.550;12.074;2022-12-07T06:20:58;10.45;;;8.52;;
53285;SDS011;39171;45.550;12.074;2022-12-07T06:26:59;11.27;;;8.75;;
53285;SDS011;39171;45.550;12.074;2022-12-07T06:33:02;10.60;;;8.50;;
53285;SDS011;39171;45.550;12.074;2022-12-07T06:39:04;11.38;;;9.90;;
53285;SDS011;39171;45.550;12.074;2022-12-07T06:45:07;11.98;;;9.55;;
53285;SDS011;39171;45.550;12.074;2022-12-07T06:51:09;12.00;;;10.63;;
53285;SDS011;39171;45.550;12.074;2022-12-07T06:57:11;11.23;;;9.85;;
53285;SDS011;39171;45.550;12.074;2022-12-07T07:03:12;12.00;;;9.77;;
53285;SDS011;39171;45.550;12.074;2022-12-07T07:09:13;12.48;;;10.10;;
53285;SDS011;39171;45.550;12.074;2022-12-07T07:15:15;11.68;;;9.77;;
53285;SDS011;39171;45.550;12.074;2022-12-07T07:21:16;11.80;;;9.48;;
53285;SDS011;39171;45.550;12.074;2022-12-07T07:27:18;12.57;;;9.85;;
53285;SDS011;39171;45.550;12.074;2022-12-07T07:33:21;12.55;;;9.68;;
53285;SDS011;39171;45.550;12.074;2022-12-07T07:39:25;13.68;;;11.43;;
53285;SDS011;39171;45.550;12.074;2022-12-07T07:45:27;12.20;;;10.23;;
53285;SDS011;39171;45.550;12.074;2022-12-07T07:51:30;13.23;;;11.10;;
53285;SDS011;39171;45.550;12.074;2022-12-07T07:57:32;14.32;;;11.65;;
53285;SDS011;39171;45.550;12.074;2022-12-07T08:03:34;12.45;;;10.48;;
53285;SDS011;39171;45.550;12.074;2022-12-07T08:09:36;14.20;;;10.45;;
53285;SDS011;39171;45.550;12.074;2022-12-07T08:15:39;13.57;;;10.88;;
53285;SDS011;39171;45.550;12.074;2022-12-07T08:21:42;14.55;;;11.32;;
53285;SDS011;39171;45.550;12.074;2022-12-07T08:27:43;13.85;;;11.30;;
53285;SDS011;39171;45.550;12.074;2022-12-07T08:33:48;13.13;;;10.57;;
53285;SDS011;39171;45.550;12.074;2022-12-07T08:39:56;14.20;;;11.23;;
53285;SDS011;39171;45.550;12.074;2022-12-07T08:52:43;13.63;;;11.52;;
53285;SDS011;39171;45.550;12.074;2022-12-07T09:05:15;13.52;;;10.98;;
53285;SDS011;39171;45.550;12.074;2022-12-07T09:11:29;11.98;;;9.50;;
53285;SDS011;39171;45.550;12.074;2022-12-07T09:17:32;10.73;;;8.80;;
53285;SDS011;39171;45.550;12.074;2022-12-07T09:23:41;11.35;;;8.65;;
53285;SDS011;39171;45.550;12.074;2022-12-07T09:29:49;10.10;;;8.13;;
53285;SDS011;39171;45.550;12.074;2022-12-07T09:35:51;9.63;;;8.13;;
53285;SDS011;39171;45.550;12.074;2022-12-07T09:42:03;9.10;;;7.40;;
53285;SDS011;39171;45.550;12.074;2022-12-07T09:48:16;8.32;;;7.13;;
53285;SDS011;39171;45.550;12.074;2022-12-07T09:54:21;7.68;;;6.10;;
53285;SDS011;39171;45.550;12.074;2022-12-07T10:00:23;8.57;;;6.85;;
53285;SDS011;39171;45.550;12.074;2022-12-07T10:06:25;7.65;;;6.22;;
53285;SDS011;39171;45.550;12.074;2022-12-07T10:12:52;9.45;;;6.72;;
53285;SDS011;39171;45.550;12.074;2022-12-07T10:19:19;7.63;;;6.10;;
53285;SDS011;39171;45.550;12.074;2022-12-07T10:25:30;11.07;;;7.65;;
53285;SDS011;39171;45.550;12.074;2022-12-07T10:31:40;9.45;;;6.60;;
53285;SDS011;39171;45.550;12.074;2022-12-07T10:37:42;8.27;;;6.35;;
53285;SDS011;39171;45.550;12.074;2022-12-07T10:43:52;8.05;;;6.55;;
53285;SDS011;39171;45.550;12.074;2022-12-07T10:50:04;8.55;;;6.05;;
53285;SDS011;39171;45.550;12.074;2022-12-07T11:02:36;6.80;;;5.68;;
53285;SDS011;39171;45.550;12.074;2022-12-07T11:15:42;9.00;;;6.07;;
53285;SDS011;39171;45.550;12.074;2022-12-07T11:35:22;5.13;;;4.20;;
53285;SDS011;39171;45.550;12.074;2022-12-07T11:42:05;4.63;;;3.50;;
53285;SDS011;39171;45.550;12.074;2022-12-07T11:48:17;4.95;;;3.70;;
53285;SDS011;39171;45.550;12.074;2022-12-07T11:54:43;4.55;;;3.20;;
53285;SDS011;39171;45.550;12.074;2022-12-07T12:00:55;4.78;;;3.47;;
53285;SDS011;39171;45.550;12.074;2022-12-07T12:07:22;5.40;;;3.50;;
53285;SDS011;39171;45.550;12.074;2022-12-07T12:13:34;5.70;;;3.33;;
53285;SDS011;39171;45.550;12.074;2022-12-07T12:20:04;4.78;;;3.30;;
53285;SDS011;39171;45.550;12.074;2022-12-07T12:26:21;5.07;;;3.03;;
53285;SDS011;39171;45.550;12.074;2022-12-07T12:32:42;4.43;;;3.08;;
53285;SDS011;39171;45.550;12.074;2022-12-07T12:51:37;5.15;;;3.53;;
53285;SDS011;39171;45.550;12.074;2022-12-07T12:57:41;5.18;;;3.80;;
53285;SDS011;39171;45.550;12.074;2022-12-07T13:03:51;6.53;;;3.40;;
53285;SDS011;39171;45.550;12.074;2022-12-07T13:09:54;4.57;;;2.67;;
53285;SDS011;39171;45.550;12.074;2022-12-07T13:28:33;3.80;;;2.90;;
53285;SDS011;39171;45.550;12.074;2022-12-07T13:34:44;3.83;;;2.95;;
53285;SDS011;39171;45.550;12.074;2022-12-07T13:40:59;3.53;;;2.75;;
53285;SDS011;39171;45.550;12.074;2022-12-07T13:53:11;4.35;;;2.80;;
53285;SDS011;39171;45.550;12.074;2022-12-07T13:59:21;4.22;;;3.22;;
53285;SDS011;39171;45.550;12.074;2022-12-07T14:05:32;4.60;;;3.00;;
53285;SDS011;39171;45.550;12.074;2022-12-07T14:11:45;4.35;;;2.92;;
53285;SDS011;39171;45.550;12.074;2022-12-07T14:17:52;3.70;;;2.90;;
53285;SDS011;39171;45.550;12.074;2022-12-07T14:24:28;4.55;;;2.67;;
53285;SDS011;39171;45.550;12.074;2022-12-07T14:30:23;4.60;;;2.63;;
53285;SDS011;39171;45.550;12.074;2022-12-07T14:36:33;3.33;;;2.53;;
53285;SDS011;39171;45.550;12.074;2022-12-07T14:42:34;3.10;;;2.22;;
53285;SDS011;39171;45.550;12.074;2022-12-07T14:48:36;4.07;;;2.67;;
53285;SDS011;39171;45.550;12.074;2022-12-07T14:54:37;3.50;;;2.75;;
53285;SDS011;39171;45.550;12.074;2022-12-07T15:08:40;3.45;;;2.80;;
53285;SDS011;39171;45.550;12.074;2022-12-07T15:14:42;4.72;;;3.30;;
53285;SDS011;39171;45.550;12.074;2022-12-07T15:20:44;6.07;;;3.67;;
53285;SDS011;39171;45.550;12.074;2022-12-07T15:26:48;5.85;;;3.90;;
53285;SDS011;39171;45.550;12.074;2022-12-07T15:32:50;5.05;;;3.65;;
53285;SDS011;39171;45.550;12.074;2022-12-07T15:38:53;6.40;;;4.43;;
53285;SDS011;39171;45.550;12.074;2022-12-07T15:44:55;7.15;;;4.30;;
53285;SDS011;39171;45.550;12.074;2022-12-07T15:51:06;6.47;;;4.60;;
53285;SDS011;39171;45.550;12.074;2022-12-07T15:57:09;6.38;;;4.20;;
53285;SDS011;39171;45.550;12.074;2022-12-07T16:03:11;5.45;;;3.63;;
53285;SDS011;39171;45.550;12.074;2022-12-07T16:09:16;5.57;;;4.55;;
53285;SDS011;39171;45.550;12.074;2022-12-07T16:21:51;6.03;;;4.90;;
53285;SDS011;39171;45.550;12.074;2022-12-07T16:27:53;9.48;;;5.85;;
53285;SDS011;39171;45.550;12.074;2022-12-07T16:33:55;10.80;;;6.15;;
53285;SDS011;39171;45.550;12.074;2022-12-07T16:39:58;11.95;;;10.00;;
53285;SDS011;39171;45.550;12.074;2022-12-07T16:46:00;13.25;;;9.80;;
53285;SDS011;39171;45.550;12.074;2022-12-07T16:52:01;15.55;;;11.95;;
53285;SDS011;39171;45.550;12.074;2022-12-07T16:58:03;17.50;;;11.60;;
53285;SDS011;39171;45.550;12.074;2022-12-07T17:04:05;13.23;;;10.80;;
53285;SDS011;39171;45.550;12.074;2022-12-07T17:10:08;14.93;;;11.30;;
53285;SDS011;39171;45.550;12.074;2022-12-07T17:16:10;14.43;;;10.35;;
53285;SDS011;39171;45.550;12.074;2022-12-07T17:22:12;17.20;;;11.65;;
53285;SDS011;39171;45.550;12.074;2022-12-07T17:28:15;15.57;;;10.85;;
53285;SDS011;39171;45.550;12.074;2022-12-07T17:34:17;17.38;;;11.15;;
53285;SDS011;39171;45.550;12.074;2022-12-07T17:40:19;13.63;;;10.55;;
53285;SDS011;39171;45.550;12.074;2022-12-07T17:46:21;12.98;;;9.90;;
53285;SDS011;39171;45.550;12.074;2022-12-07T17:52:22;14.05;;;10.20;;
53285;SDS011;39171;45.550;12.074;2022-12-07T17:58:42;13.27;;;9.73;;
53285;SDS011;39171;45.550;12.074;2022-12-07T18:04:43;13.82;;;10.88;;
53285;SDS011;39171;45.550;12.074;2022-12-07T18:10:47;14.88;;;11.15;;
53285;SDS011;39171;45.550;12.074;2022-12-07T18:16:48;17.95;;;11.95;;
53285;SDS011;39171;45.550;12.074;2022-12-07T18:22:50;14.02;;;11.82;;
53285;SDS011;39171;45.550;12.074;2022-12-07T18:28:53;17.45;;;11.70;;
53285;SDS011;39171;45.550;12.074;2022-12-07T18:34:54;15.45;;;11.32;;
53285;SDS011;39171;45.550;12.074;2022-12-07T18:40:56;16.73;;;12.73;;
53285;SDS011;39171;45.550;12.074;2022-12-07T18:46:57;17.52;;;13.98;;
53285;SDS011;39171;45.550;12.074;2022-12-07T18:52:59;18.48;;;13.40;;
53285;SDS011;39171;45.550;12.074;2022-12-07T18:59:02;20.40;;;16.17;;
53285;SDS011;39171;45.550;12.074;2022-12-07T19:13:21;28.15;;;17.83;;
53285;SDS011;39171;45.550;12.074;2022-12-07T19:19:24;24.40;;;17.63;;
53285;SDS011;39171;45.550;12.074;2022-12-07T19:25:35;22.00;;;16.17;;
53285;SDS011;39171;45.550;12.074;2022-12-07T19:31:40;21.25;;;14.20;;
53285;SDS011;39171;45.550;12.074;2022-12-07T19:37:41;20.27;;;15.40;;
53285;SDS011;39171;45.550;12.074;2022-12-07T19:43:43;18.95;;;14.85;;
53285;SDS011;39171;45.550;12.074;2022-12-07T19:49:44;20.52;;;14.32;;
53285;SDS011;39171;45.550;12.074;2022-12-07T19:55:49;19.92;;;15.18;;
53285;SDS011;39171;45.550;12.074;2022-12-07T20:01:51;21.55;;;15.63;;
53285;SDS011;39171;45.550;12.074;2022-12-07T20:07:53;21.42;;;15.27;;
53285;SDS011;39171;45.550;12.074;2022-12-07T20:13:54;22.70;;;16.60;;
53285;SDS011;39171;45.550;12.074;2022-12-07T20:19:56;22.30;;;16.13;;
53285;SDS011;39171;45.550;12.074;2022-12-07T20:26:00;19.33;;;15.85;;
53285;SDS011;39171;45.550;12.074;2022-12-07T20:32:04;19.13;;;14.90;;
53285;SDS011;39171;45.550;12.074;2022-12-07T20:38:14;20.40;;;15.27;;
53285;SDS011;39171;45.550;12.074;2022-12-07T20:44:16;20.80;;;15.38;;
53285;SDS011;39171;45.550;12.074;2022-12-07T20:50:18;18.13;;;14.10;;
53285;SDS011;39171;45.550;12.074;2022-12-07T20:56:21;18.85;;;14.60;;
53285;SDS011;39171;45.550;12.074;2022-12-07T21:02:28;16.40;;;13.48;;
53285;SDS011;39171;45.550;12.074;2022-12-07T21:08:29;15.63;;;13.15;;
53285;SDS011;39171;45.550;12.074;2022-12-07T21:14:31;15.68;;;12.63;;
53285;SDS011;39171;45.550;12.074;2022-12-07T21:20:32;17.15;;;12.70;;
53285;SDS011;39171;45.550;12.074;2022-12-07T21:26:34;16.95;;;12.75;;
53285;SDS011;39171;45.550;12.074;2022-12-07T21:32:36;15.05;;;11.85;;
53285;SDS011;39171;45.550;12.074;2022-12-07T21:38:37;17.55;;;12.13;;
53285;SDS011;39171;45.550;12.074;2022-12-07T21:44:39;13.95;;;11.18;;
53285;SDS011;39171;45.550;12.074;2022-12-07T21:50:46;13.68;;;10.75;;
53285;SDS011;39171;45.550;12.074;2022-12-07T21:56:47;15.95;;;11.57;;
53285;SDS011;39171;45.550;12.074;2022-12-07T22:02:49;15.02;;;11.73;;
53285;SDS011;39171;45.550;12.074;2022-12-07T22:08:51;14.00;;;10.82;;
53285;SDS011;39171;45.550;12.074;2022-12-07T22:14:53;14.05;;;11.25;;
53285;SDS011;39171;45.550;12.074;2022-12-07T22:21:09;14.85;;;11.45;;
53285;SDS011;39171;45.550;12.074;2022-12-07T22:27:11;14.52;;;11.25;;
53285;SDS011;39171;45.550;12.074;2022-12-07T22:33:12;15.80;;;11.60;;
53285;SDS011;39171;45.550;12.074;2022-12-07T22:39:14;15.75;;;11.48;;
53285;SDS011;39171;45.550;12.074;2022-12-07T22:45:15;12.80;;;10.05;;
53285;SDS011;39171;45.550;12.074;2022-12-07T22:51:28;12.77;;;10.48;;
53285;SDS011;39171;45.550;12.074;2022-12-07T22:57:30;14.52;;;11.40;;
53285;SDS011;39171;45.550;12.074;2022-12-07T23:03:32;14.05;;;10.90;;
53285;SDS011;39171;45.550;12.074;2022-12-07T23:09:34;13.40;;;10.30;;
53285;SDS011;39171;45.550;12.074;2022-12-07T23:15:36;12.02;;;10.50;;
53285;SDS011;39171;45.550;12.074;2022-12-07T23:21:46;12.25;;;9.88;;
53285;SDS011;39171;45.550;12.074;2022-12-07T23:27:47;12.65;;;9.55;;
53285;SDS011;39171;45.550;12.074;2022-12-07T23:33:49;9.65;;;8.30;;
53285;SDS011;39171;45.550;12.074;2022-12-07T23:39:50;11.02;;;8.30;;
53285;SDS011;39171;45.550;12.074;2022-12-07T23:45:52;10.65;;;8.15;;
53285;SDS011;39171;45.550;12.074;2022-12-07T23:51:53;9.45;;;8.02;;
53285;SDS011;39171;45.550;12.074;2022-12-07T23:57:54;10.02;;;7.38;;
